Schedule Details


Flight Number: CTN484
Departure: Franjo Tudman (LDZA) at 14:55
Arrival: Arlanda (ESSA) at 17:25
Route: OBUTI DCT DIMLO DCT ARSIN DCT ABLOM DCT MAVOR P10 HLV L156 SOPAV L617 REGLI T720 GRUDA N133 PENOR M607 ARMOD Z228 NILUG

Weather Information
LDZA 092330Z 24003KT CAVOK 05/00 Q1022 NOSIG
ESSA 092350Z 32007KT CAVOK 03/M06 Q1020 R01L/09//95 R01R/09//95 R08/09//95 NOSIG
Schedule Frequency

Route Map